Time;durP1;ratioP1;P1;durP2;ratioP2;P2;SDS_P1;SDS_P2;PMS_P1;PMS_P2;Temp;Humidity;BMP_temperature;BMP_pressure;BME280_temperature;BME280_humidity;BME280_pressure;Samples;Min_cycle;Max_cycle;Signal;HPM_P1;HPM_P2
2023/11/26 00:00:00;;;;;;;4.97;4.15;;;;;;;;;;4975168;28;20456;-72
2023/11/26 00:02:26;;;;;;;5.72;4.05;;;;;;;;;;4974998;28;20034;-73
2023/11/26 00:04:52;;;;;;;4.57;3.55;;;;;;;;;;4972219;28;20130;-72
2023/11/26 00:07:17;;;;;;;5.78;3.90;;;;;;;;;;4972989;28;20077;-66
2023/11/26 00:09:43;;;;;;;4.03;3.17;;;;;;;;;;4973636;28;20441;-66
2023/11/26 00:12:08;;;;;;;5.25;2.80;;;;;;;;;;4973149;28;20117;-66
2023/11/26 00:14:37;;;;;;;3.65;2.53;;;;;;;;;;4973421;28;20097;-67
2023/11/26 00:17:02;;;;;;;3.17;2.70;;;;;;;;;;4973137;28;20041;-73
2023/11/26 00:19:29;;;;;;;2.40;2.20;;;;;;;;;;4972891;28;20030;-66
2023/11/26 00:21:55;;;;;;;2.10;1.80;;;;;;;;;;4973219;28;20031;-63
2023/11/26 00:24:21;;;;;;;2.70;1.70;;;;;;;;;;4972926;28;20043;-63
2023/11/26 00:26:46;;;;;;;3.10;2.78;;;;;;;;;;4973286;28;20366;-64
2023/11/26 00:29:11;;;;;;;5.32;4.82;;;;;;;;;;4972858;28;20042;-72
2023/11/26 00:31:37;;;;;;;3.20;2.88;;;;;;;;;;4972233;28;20659;-63
2023/11/26 00:34:02;;;;;;;2.35;2.15;;;;;;;;;;4969792;28;20031;-73
2023/11/26 00:36:28;;;;;;;3.55;2.47;;;;;;;;;;4968466;28;20097;-73
2023/11/26 00:38:54;;;;;;;3.20;2.67;;;;;;;;;;4967994;28;20046;-66
2023/11/26 00:41:20;;;;;;;5.68;5.13;;;;;;;;;;4968726;28;20057;-64
2023/11/26 00:43:46;;;;;;;2.00;1.80;;;;;;;;;;4969920;28;20034;-64
2023/11/26 00:46:11;;;;;;;3.30;2.85;;;;;;;;;;4969748;28;20062;-64
2023/11/26 00:48:37;;;;;;;3.35;1.98;;;;;;;;;;4968064;28;20401;-70
2023/11/26 00:51:04;;;;;;;2.38;2.17;;;;;;;;;;4968166;28;20393;-70
2023/11/26 00:53:29;;;;;;;2.90;2.63;;;;;;;;;;4969479;28;20281;-64
2023/11/26 00:55:55;;;;;;;3.30;2.90;;;;;;;;;;4969892;28;20434;-64
2023/11/26 00:58:20;;;;;;;2.70;2.30;;;;;;;;;;4969462;28;20122;-71
2023/11/26 01:00:46;;;;;;;3.88;2.22;;;;;;;;;;4969477;28;20417;-64
2023/11/26 01:03:11;;;;;;;2.85;2.58;;;;;;;;;;4952364;28;20039;-64
2023/11/26 01:05:37;;;;;;;4.38;2.80;;;;;;;;;;4989112;28;20389;-69
2023/11/26 01:08:03;;;;;;;2.92;2.40;;;;;;;;;;4988875;28;20050;-64
2023/11/26 01:10:28;;;;;;;4.78;2.92;;;;;;;;;;4987524;28;20405;-70
2023/11/26 01:12:54;;;;;;;3.22;2.53;;;;;;;;;;4970748;28;20018;-63
2023/11/26 01:15:19;;;;;;;2.50;2.30;;;;;;;;;;4970873;28;20041;-70
2023/11/26 01:17:47;;;;;;;2.78;2.53;;;;;;;;;;4988321;28;20157;-70
2023/11/26 01:20:12;;;;;;;3.50;3.20;;;;;;;;;;4988441;28;20089;-64
2023/11/26 01:22:38;;;;;;;2.55;2.35;;;;;;;;;;4986971;28;20540;-64
2023/11/26 01:25:05;;;;;;;4.28;2.95;;;;;;;;;;4988738;28;20041;-71
2023/11/26 01:27:31;;;;;;;4.05;3.55;;;;;;;;;;4970623;28;20026;-71
2023/11/26 01:29:56;;;;;;;4.47;4.13;;;;;;;;;;4971130;28;20045;-70
2023/11/26 01:32:21;;;;;;;5.43;3.45;;;;;;;;;;4986688;28;20069;-65
2023/11/26 01:34:47;;;;;;;4.05;3.40;;;;;;;;;;4970905;28;20377;-64
2023/11/26 01:37:12;;;;;;;3.47;3.15;;;;;;;;;;4987976;28;20042;-75
2023/11/26 01:39:38;;;;;;;3.00;2.80;;;;;;;;;;4988185;28;20044;-65
2023/11/26 01:42:05;;;;;;;3.78;3.33;;;;;;;;;;4970886;28;20030;-64
2023/11/26 01:44:31;;;;;;;3.33;3.03;;;;;;;;;;4986995;28;20041;-74
2023/11/26 01:46:59;;;;;;;3.17;2.88;;;;;;;;;;4988298;28;20477;-74
2023/11/26 01:49:25;;;;;;;2.88;2.67;;;;;;;;;;4988121;28;20464;-65
2023/11/26 01:51:51;;;;;;;2.42;2.25;;;;;;;;;;4988021;28;20054;-74
2023/11/26 01:54:17;;;;;;;2.63;2.42;;;;;;;;;;4988237;28;20046;-73
2023/11/26 01:56:42;;;;;;;3.00;2.67;;;;;;;;;;4988217;28;20038;-75
2023/11/26 01:59:08;;;;;;;3.72;2.70;;;;;;;;;;4985883;28;20440;-65
2023/11/26 02:01:34;;;;;;;3.40;3.10;;;;;;;;;;4969848;28;20030;-74
2023/11/26 02:04:00;;;;;;;3.78;2.65;;;;;;;;;;4969748;28;20116;-75
2023/11/26 02:06:25;;;;;;;3.03;2.63;;;;;;;;;;4987919;28;20030;-72
2023/11/26 02:08:51;;;;;;;3.08;2.78;;;;;;;;;;4986243;28;20120;-68
2023/11/26 02:11:17;;;;;;;3.17;2.83;;;;;;;;;;4985930;28;20554;-72
2023/11/26 02:13:52;;;;;;;4.25;2.80;;;;;;;;;;4953974;28;20404;-66
2023/11/26 02:16:18;;;;;;;3.53;2.78;;;;;;;;;;4970084;28;20489;-66
2023/11/26 02:18:43;;;;;;;4.32;3.00;;;;;;;;;;4985938;28;20026;-64
2023/11/26 02:21:09;;;;;;;3.10;2.58;;;;;;;;;;4969615;28;20046;-73
2023/11/26 02:23:36;;;;;;;2.85;2.65;;;;;;;;;;4953660;28;20396;-71
2023/11/26 02:26:04;;;;;;;3.72;2.97;;;;;;;;;;4969715;28;20400;-66
2023/11/26 02:28:30;;;;;;;3.50;3.20;;;;;;;;;;4987205;28;20042;-67
2023/11/26 02:30:55;;;;;;;3.33;3.03;;;;;;;;;;4987449;28;20049;-73
2023/11/26 02:33:21;;;;;;;3.55;2.67;;;;;;;;;;4987423;28;20080;-67
2023/11/26 02:35:46;;;;;;;3.28;3.08;;;;;;;;;;4987409;28;20034;-73
2023/11/26 02:38:12;;;;;;;3.53;3.13;;;;;;;;;;4987353;28;20114;-67
2023/11/26 02:40:38;;;;;;;3.50;3.20;;;;;;;;;;4985455;28;20041;-72
2023/11/26 02:43:04;;;;;;;3.60;3.30;;;;;;;;;;4987082;28;20389;-72
2023/11/26 02:45:29;;;;;;;3.40;3.05;;;;;;;;;;4986908;28;20439;-63
2023/11/26 02:47:55;;;;;;;3.40;3.10;;;;;;;;;;4986714;28;20045;-63
2023/11/26 02:50:22;;;;;;;3.55;2.53;;;;;;;;;;4986853;28;20026;-64
2023/11/26 02:52:47;;;;;;;3.17;2.80;;;;;;;;;;4986508;28;20145;-67
2023/11/26 02:55:14;;;;;;;3.42;2.63;;;;;;;;;;4986524;28;20106;-66
2023/11/26 02:57:39;;;;;;;4.70;3.35;;;;;;;;;;4986902;28;20030;-66
2023/11/26 03:00:15;;;;;;;4.68;3.38;;;;;;;;;;4968796;28;20035;-66
2023/11/26 03:02:44;;;;;;;4.30;3.40;;;;;;;;;;4985166;28;20030;-68
2023/11/26 03:05:17;;;;;;;3.88;3.47;;;;;;;;;;4965463;28;20043;-73
2023/11/26 03:07:46;;;;;;;3.85;3.47;;;;;;;;;;4967316;28;20519;-71
2023/11/26 03:13:06;;;;;;;5.13;3.78;;;;;;;;;;4966835;28;20117;-71
2023/11/26 03:15:35;;;;;;;3.08;2.75;;;;;;;;;;4965689;28;20035;-71
2023/11/26 03:18:03;;;;;;;3.90;3.55;;;;;;;;;;4967181;28;20590;-72
2023/11/26 03:20:31;;;;;;;5.13;3.92;;;;;;;;;;4965825;28;20481;-64
2023/11/26 03:22:57;;;;;;;4.30;3.90;;;;;;;;;;4967337;28;20070;-71
2023/11/26 03:25:25;;;;;;;4.10;3.70;;;;;;;;;;4967334;28;20023;-64
2023/11/26 03:27:52;;;;;;;4.05;3.75;;;;;;;;;;4981442;28;20039;-71
2023/11/26 03:30:18;;;;;;;3.67;3.35;;;;;;;;;;4967365;28;20031;-71
2023/11/26 03:32:43;;;;;;;3.97;3.67;;;;;;;;;;4967352;28;20598;-64
2023/11/26 03:35:10;;;;;;;4.18;3.58;;;;;;;;;;4966110;28;20035;-71
2023/11/26 03:37:36;;;;;;;4.45;3.60;;;;;;;;;;4949686;28;20085;-71
2023/11/26 03:40:01;;;;;;;4.50;4.10;;;;;;;;;;4966773;28;20087;-69
2023/11/26 03:42:26;;;;;;;4.78;4.22;;;;;;;;;;4966970;28;20031;-64
2023/11/26 03:44:52;;;;;;;5.20;4.60;;;;;;;;;;4966716;28;20031;-63
2023/11/26 04:07:28;;;;;;;4.07;3.47;;;;;;;;;;4992073;28;20097;-74
2023/11/26 04:09:53;;;;;;;4.97;3.78;;;;;;;;;;4972108;28;20489;-67
2023/11/26 04:12:18;;;;;;;4.43;4.03;;;;;;;;;;4989685;28;20042;-66
2023/11/26 04:14:54;;;;;;;5.28;4.28;;;;;;;;;;4988463;28;20037;-65
2023/11/26 04:17:20;;;;;;;5.05;3.85;;;;;;;;;;4987951;28;20038;-65
2023/11/26 04:19:46;;;;;;;4.90;4.22;;;;;;;;;;4971870;28;20069;-73
2023/11/26 04:22:12;;;;;;;5.43;3.85;;;;;;;;;;4955911;28;20125;-74
2023/11/26 04:24:40;;;;;;;5.07;4.22;;;;;;;;;;4989406;28;20030;-66
2023/11/26 04:27:05;;;;;;;4.70;4.30;;;;;;;;;;4989775;28;20035;-67
2023/11/26 04:29:31;;;;;;;5.07;4.00;;;;;;;;;;4989498;28;20022;-68
2023/11/26 04:31:57;;;;;;;4.38;3.60;;;;;;;;;;4971718;28;20401;-65
2023/11/26 04:34:22;;;;;;;3.97;3.13;;;;;;;;;;4989443;28;20046;-67
2023/11/26 04:36:47;;;;;;;3.70;3.40;;;;;;;;;;4989368;28;20125;-72
2023/11/26 04:39:13;;;;;;;3.58;3.10;;;;;;;;;;4989662;28;20042;-67
2023/11/26 04:41:39;;;;;;;4.03;3.60;;;;;;;;;;4989345;28;20034;-67
2023/11/26 04:44:04;;;;;;;4.60;3.75;;;;;;;;;;4971698;28;20037;-68
2023/11/26 04:46:29;;;;;;;5.05;3.60;;;;;;;;;;4989340;28;20117;-73
2023/11/26 04:48:55;;;;;;;6.82;3.63;;;;;;;;;;4989156;28;20041;-69
2023/11/26 04:51:21;;;;;;;4.10;3.75;;;;;;;;;;4987509;28;20042;-73
2023/11/26 04:53:47;;;;;;;4.57;3.90;;;;;;;;;;4989296;28;20041;-73
2023/11/26 04:56:13;;;;;;;4.35;3.95;;;;;;;;;;4989392;28;20477;-73
2023/11/26 04:58:40;;;;;;;4.25;3.80;;;;;;;;;;4988897;28;20038;-62
2023/11/26 05:01:06;;;;;;;5.78;4.18;;;;;;;;;;4988989;28;20038;-71
2023/11/26 05:03:31;;;;;;;4.03;3.72;;;;;;;;;;4970982;28;20473;-63
2023/11/26 05:05:57;;;;;;;4.22;3.83;;;;;;;;;;4988977;28;20840;-73
2023/11/26 05:08:22;;;;;;;4.85;4.25;;;;;;;;;;4987256;28;20077;-63
2023/11/26 05:10:49;;;;;;;4.40;4.00;;;;;;;;;;4989020;28;20042;-75
2023/11/26 05:13:14;;;;;;;5.35;4.40;;;;;;;;;;4988942;28;20388;-74
2023/11/26 05:15:40;;;;;;;6.38;4.35;;;;;;;;;;4971178;28;20088;-65
2023/11/26 05:18:05;;;;;;;5.93;3.88;;;;;;;;;;4988434;28;20792;-64
2023/11/26 05:20:31;;;;;;;5.40;4.18;;;;;;;;;;4988805;28;20038;-73
2023/11/26 05:22:57;;;;;;;4.82;4.32;;;;;;;;;;4988687;28;20034;-74
2023/11/26 05:25:24;;;;;;;4.80;4.22;;;;;;;;;;4988755;28;20108;-73
2023/11/26 05:27:49;;;;;;;5.43;4.18;;;;;;;;;;4988301;28;20093;-67
2023/11/26 05:30:15;;;;;;;4.88;3.80;;;;;;;;;;4970980;28;20030;-65
2023/11/26 05:32:40;;;;;;;4.32;3.92;;;;;;;;;;4970751;28;20038;-74
2023/11/26 05:35:12;;;;;;;4.28;3.85;;;;;;;;;;4988333;28;20038;-67
2023/11/26 05:37:41;;;;;;;4.32;3.85;;;;;;;;;;4988468;28;20373;-68
2023/11/26 05:40:07;;;;;;;4.53;4.03;;;;;;;;;;4970538;28;20034;-73
2023/11/26 05:42:33;;;;;;;4.57;4.18;;;;;;;;;;4988248;28;20033;-74
2023/11/26 05:44:58;;;;;;;7.03;4.30;;;;;;;;;;4988168;28;20417;-65
2023/11/26 05:47:24;;;;;;;4.30;3.90;;;;;;;;;;4988012;28;20033;-73
2023/11/26 05:49:52;;;;;;;4.35;3.95;;;;;;;;;;4988135;28;20070;-74
2023/11/26 05:52:18;;;;;;;4.65;4.10;;;;;;;;;;4988041;28;20033;-72
2023/11/26 05:54:44;;;;;;;4.47;4.07;;;;;;;;;;4987863;28;20384;-72
2023/11/26 05:57:09;;;;;;;3.78;3.47;;;;;;;;;;4987538;28;20481;-65
2023/11/26 05:59:36;;;;;;;4.10;3.70;;;;;;;;;;4987093;28;20319;-65
2023/11/26 06:02:02;;;;;;;4.97;4.10;;;;;;;;;;4987246;28;20524;-66
2023/11/26 06:04:27;;;;;;;5.60;3.97;;;;;;;;;;4987257;28;20125;-71
2023/11/26 06:06:52;;;;;;;3.92;3.55;;;;;;;;;;4985221;28;20053;-74
2023/11/26 06:09:18;;;;;;;4.75;3.90;;;;;;;;;;4986990;28;20034;-75
2023/11/26 06:11:43;;;;;;;4.25;3.60;;;;;;;;;;4986925;28;20061;-73
2023/11/26 06:14:09;;;;;;;15.23;9.43;;;;;;;;;;4986997;28;20038;-65
2023/11/26 06:16:34;;;;;;;32.38;18.05;;;;;;;;;;4986908;28;20064;-65
2023/11/26 06:19:00;;;;;;;4.50;4.10;;;;;;;;;;4986871;28;20057;-65
2023/11/26 06:21:26;;;;;;;3.58;3.20;;;;;;;;;;4986744;28;20632;-66
2023/11/26 06:23:51;;;;;;;4.30;3.90;;;;;;;;;;4986666;28;20117;-72
2023/11/26 06:26:17;;;;;;;3.53;3.22;;;;;;;;;;4988678;28;20444;-73
2023/11/26 06:28:42;;;;;;;3.30;2.92;;;;;;;;;;4992610;28;20026;-73
2023/11/26 06:31:09;;;;;;;3.88;3.30;;;;;;;;;;4991978;28;20069;-74
2023/11/26 06:33:34;;;;;;;3.97;3.58;;;;;;;;;;4992668;28;20042;-76
2023/11/26 06:36:00;;;;;;;3.35;3.05;;;;;;;;;;4992430;28;20030;-73
2023/11/26 06:38:25;;;;;;;3.53;3.22;;;;;;;;;;4992434;28;20111;-74
2023/11/26 06:40:51;;;;;;;3.70;3.38;;;;;;;;;;4993060;28;20516;-75
2023/11/26 06:43:16;;;;;;;4.10;2.78;;;;;;;;;;4992954;28;20531;-72
2023/11/26 06:45:42;;;;;;;3.53;2.88;;;;;;;;;;4992316;28;20026;-72
2023/11/26 06:48:07;;;;;;;3.28;2.47;;;;;;;;;;4993467;28;20080;-72
2023/11/26 06:50:36;;;;;;;2.83;2.63;;;;;;;;;;4992303;28;20026;-72
2023/11/26 06:53:02;;;;;;;2.75;2.55;;;;;;;;;;4991697;28;20054;-72
2023/11/26 06:55:27;;;;;;;2.90;2.22;;;;;;;;;;4991703;28;20476;-63
2023/11/26 06:57:52;;;;;;;2.53;2.38;;;;;;;;;;4991433;28;20039;-62
2023/11/26 07:00:18;;;;;;;2.30;1.77;;;;;;;;;;4974425;28;20045;-63
2023/11/26 07:02:44;;;;;;;1.90;1.80;;;;;;;;;;4991792;28;20030;-63
2023/11/26 07:05:12;;;;;;;2.38;1.90;;;;;;;;;;4991465;28;20378;-63
2023/11/26 07:07:40;;;;;;;2.20;2.00;;;;;;;;;;4990209;28;20433;-62
2023/11/26 07:10:06;;;;;;;2.38;2.10;;;;;;;;;;4991194;28;20039;-72
2023/11/26 07:12:32;;;;;;;2.13;1.70;;;;;;;;;;4991217;28;20049;-72
2023/11/26 07:14:58;;;;;;;2.03;1.88;;;;;;;;;;4992712;28;20030;-62
2023/11/26 07:17:25;;;;;;;1.67;1.52;;;;;;;;;;4992089;28;20033;-62
2023/11/26 07:19:51;;;;;;;3.63;2.25;;;;;;;;;;4992595;28;20153;-63
2023/11/26 07:22:16;;;;;;;3.35;1.77;;;;;;;;;;4993369;28;20092;-63
2023/11/26 07:24:43;;;;;;;1.80;1.70;;;;;;;;;;4992433;28;20394;-63
2023/11/26 07:27:08;;;;;;;2.33;1.98;;;;;;;;;;4992418;28;20038;-63
2023/11/26 07:29:34;;;;;;;1.85;1.75;;;;;;;;;;4992015;28;20034;-64
2023/11/26 07:31:59;;;;;;;1.95;1.77;;;;;;;;;;4991672;28;20230;-64
2023/11/26 07:34:25;;;;;;;1.65;1.55;;;;;;;;;;4992761;28;20049;-64
2023/11/26 07:36:51;;;;;;;1.70;1.60;;;;;;;;;;4992462;28;20495;-64
2023/11/26 07:39:16;;;;;;;1.88;1.73;;;;;;;;;;4992047;28;20058;-64
2023/11/26 07:41:46;;;;;;;1.60;1.50;;;;;;;;;;4993433;28;20073;-63
2023/11/26 07:44:13;;;;;;;2.00;1.50;;;;;;;;;;4996029;28;20105;-63
2023/11/26 07:46:39;;;;;;;2.08;1.85;;;;;;;;;;4978146;28;20027;-64
2023/11/26 07:49:05;;;;;;;1.80;1.70;;;;;;;;;;4996316;28;20034;-63
2023/11/26 07:51:31;;;;;;;1.88;1.77;;;;;;;;;;4996013;28;20042;-64
2023/11/26 07:53:56;;;;;;;1.80;1.70;;;;;;;;;;4978752;28;20359;-64
2023/11/26 07:56:21;;;;;;;2.88;1.83;;;;;;;;;;4995819;28;20042;-63
2023/11/26 07:58:47;;;;;;;1.90;1.65;;;;;;;;;;4997213;28;20044;-65
2023/11/26 08:01:12;;;;;;;2.35;1.90;;;;;;;;;;4996751;28;20041;-65
2023/11/26 08:03:39;;;;;;;2.90;1.92;;;;;;;;;;4979612;28;20072;-65
2023/11/26 08:06:06;;;;;;;4.05;2.03;;;;;;;;;;4996481;28;20018;-65
2023/11/26 08:08:36;;;;;;;2.60;2.40;;;;;;;;;;4975086;28;20109;-65
2023/11/26 08:11:03;;;;;;;3.78;3.05;;;;;;;;;;4976921;28;20035;-64
2023/11/26 08:13:31;;;;;;;4.38;2.92;;;;;;;;;;4976116;28;20073;-64
2023/11/26 08:15:56;;;;;;;3.63;2.90;;;;;;;;;;4959611;28;20027;-64
2023/11/26 08:18:22;;;;;;;2.72;2.50;;;;;;;;;;4959065;28;20510;-64
2023/11/26 08:20:49;;;;;;;3.08;2.75;;;;;;;;;;4976975;28;20027;-64
2023/11/26 08:23:16;;;;;;;3.20;2.78;;;;;;;;;;4959264;28;20074;-64
2023/11/26 08:25:43;;;;;;;2.50;2.30;;;;;;;;;;4974780;28;20373;-64
2023/11/26 08:28:11;;;;;;;2.25;2.03;;;;;;;;;;4976212;28;20081;-73
2023/11/26 08:30:42;;;;;;;2.42;2.22;;;;;;;;;;4976879;28;20041;-74
2023/11/26 08:33:10;;;;;;;2.88;2.38;;;;;;;;;;4976766;28;20808;-74
2023/11/26 08:35:37;;;;;;;2.88;2.20;;;;;;;;;;4974995;28;20105;-74
2023/11/26 08:38:04;;;;;;;2.22;2.03;;;;;;;;;;4975078;28;20525;-75
2023/11/26 08:40:33;;;;;;;2.55;2.10;;;;;;;;;;4975372;28;20109;-75
2023/11/26 08:43:13;;;;;;;3.10;2.60;;;;;;;;;;4975210;28;20027;-71
2023/11/26 08:45:42;;;;;;;2.73;2.17;;;;;;;;;;4976997;28;20370;-70
2023/11/26 08:48:08;;;;;;;2.55;1.90;;;;;;;;;;4976895;28;20289;-71
2023/11/26 08:50:36;;;;;;;4.00;2.30;;;;;;;;;;4976489;28;20037;-71
2023/11/26 08:53:05;;;;;;;2.88;2.30;;;;;;;;;;4975931;28;20056;-72
2023/11/26 08:55:31;;;;;;;2.40;2.17;;;;;;;;;;4959651;28;20040;-71
2023/11/26 08:57:57;;;;;;;3.38;2.88;;;;;;;;;;4976776;28;20039;-71
2023/11/26 09:00:22;;;;;;;2.25;2.05;;;;;;;;;;4974975;28;20027;-71
2023/11/26 09:02:47;;;;;;;3.00;2.03;;;;;;;;;;4975288;28;20027;-71
2023/11/26 09:05:13;;;;;;;2.38;2.15;;;;;;;;;;4975291;28;20069;-71
2023/11/26 09:07:42;;;;;;;2.35;2.15;;;;;;;;;;4981224;28;20042;-71
2023/11/26 09:10:11;;;;;;;2.58;2.28;;;;;;;;;;4994666;28;20030;-71
2023/11/26 09:12:42;;;;;;;4.63;4.22;;;;;;;;;;4994752;28;20555;-71
2023/11/26 09:15:10;;;;;;;7.88;4.35;;;;;;;;;;4977403;28;20477;-71
2023/11/26 09:17:36;;;;;;;6.50;4.72;;;;;;;;;;4996724;28;20093;-71
2023/11/26 09:20:01;;;;;;;13.23;10.20;;;;;;;;;;4978871;28;20062;-71
2023/11/26 09:22:26;;;;;;;11.27;8.63;;;;;;;;;;4978796;28;20069;-71
2023/11/26 09:24:52;;;;;;;6.18;5.57;;;;;;;;;;4996517;28;20029;-70
2023/11/26 09:27:17;;;;;;;3.20;2.90;;;;;;;;;;4996212;28;20384;-71
2023/11/26 09:29:43;;;;;;;2.40;2.20;;;;;;;;;;4996126;28;20057;-71
2023/11/26 09:32:08;;;;;;;3.28;2.97;;;;;;;;;;4996410;28;20117;-71
2023/11/26 09:34:34;;;;;;;3.72;3.00;;;;;;;;;;4996337;28;20048;-71
2023/11/26 09:37:04;;;;;;;2.70;2.50;;;;;;;;;;4978570;28;20048;-71
2023/11/26 09:39:30;;;;;;;2.85;2.17;;;;;;;;;;4978872;28;20030;-71
2023/11/26 09:41:57;;;;;;;3.20;2.13;;;;;;;;;;4996199;28;20041;-70
2023/11/26 09:44:22;;;;;;;4.03;2.60;;;;;;;;;;4995985;28;20050;-71
2023/11/26 09:46:49;;;;;;;4.15;2.38;;;;;;;;;;4996371;28;20065;-71
2023/11/26 09:49:15;;;;;;;2.85;2.05;;;;;;;;;;4978511;28;20045;-71
2023/11/26 09:51:40;;;;;;;2.85;2.15;;;;;;;;;;4995825;28;20384;-71
2023/11/26 09:54:06;;;;;;;3.90;2.58;;;;;;;;;;4995696;28;20385;-70
2023/11/26 09:56:32;;;;;;;17.13;10.68;;;;;;;;;;4978517;28;20022;-71
2023/11/26 09:58:57;;;;;;;6.03;3.50;;;;;;;;;;4962308;28;20108;-70
2023/11/26 10:01:23;;;;;;;2.47;2.08;;;;;;;;;;4995106;28;20023;-70
2023/11/26 10:04:04;;;;;;;2.05;1.95;;;;;;;;;;4995116;28;20033;-70
2023/11/26 10:06:30;;;;;;;3.15;2.85;;;;;;;;;;4993832;28;20031;-70
2023/11/26 10:08:56;;;;;;;1.90;1.80;;;;;;;;;;4994185;28;20074;-70
2023/11/26 10:11:23;;;;;;;2.33;1.73;;;;;;;;;;4994225;28;20148;-70
2023/11/26 10:13:49;;;;;;;2.15;1.77;;;;;;;;;;4977090;28;20131;-71
2023/11/26 10:16:27;;;;;;;2.63;2.42;;;;;;;;;;4976904;28;20113;-70
2023/11/26 10:18:52;;;;;;;2.20;2.10;;;;;;;;;;4994131;28;20034;-70
2023/11/26 10:21:18;;;;;;;4.68;2.70;;;;;;;;;;4994151;28;20409;-70
2023/11/26 10:23:44;;;;;;;2.65;1.70;;;;;;;;;;4994334;28;20381;-70
2023/11/26 10:26:23;;;;;;;2.67;2.25;;;;;;;;;;4994102;28;20027;-70
2023/11/26 10:29:08;;;;;;;2.42;2.22;;;;;;;;;;4994077;28;20038;-70
2023/11/26 10:31:36;;;;;;;4.70;2.05;;;;;;;;;;4993907;28;20034;-70
2023/11/26 10:34:16;;;;;;;3.92;3.03;;;;;;;;;;4993900;28;20025;-70
2023/11/26 10:36:41;;;;;;;3.35;2.72;;;;;;;;;;4993851;28;20097;-70
2023/11/26 10:39:09;;;;;;;1.90;1.75;;;;;;;;;;4976377;28;20026;-70
2023/11/26 10:41:36;;;;;;;2.83;2.22;;;;;;;;;;4993756;28;20041;-70
2023/11/26 10:44:03;;;;;;;2.70;2.05;;;;;;;;;;4994017;28;20018;-70
2023/11/26 10:46:33;;;;;;;2.50;2.30;;;;;;;;;;4976373;28;20504;-70
2023/11/26 10:49:06;;;;;;;2.63;2.42;;;;;;;;;;4976303;28;20040;-70
2023/11/26 10:51:33;;;;;;;3.45;3.17;;;;;;;;;;4993561;28;20037;-70
2023/11/26 10:54:02;;;;;;;2.75;2.20;;;;;;;;;;4993623;28;20031;-70
2023/11/26 10:56:34;;;;;;;2.10;2.00;;;;;;;;;;4976209;28;20092;-70
2023/11/26 10:59:01;;;;;;;2.50;2.30;;;;;;;;;;4993732;28;20461;-70
2023/11/26 11:01:26;;;;;;;3.47;2.70;;;;;;;;;;4993486;28;20026;-70
2023/11/26 11:03:53;;;;;;;4.78;2.58;;;;;;;;;;4975945;28;20035;-70
2023/11/26 11:06:20;;;;;;;4.60;3.35;;;;;;;;;;4975983;28;20032;-70
2023/11/26 11:08:45;;;;;;;4.68;3.13;;;;;;;;;;4993285;28;20050;-70
2023/11/26 11:11:29;;;;;;;2.00;1.88;;;;;;;;;;4993376;28;20037;-70
2023/11/26 11:13:56;;;;;;;4.28;2.25;;;;;;;;;;4993238;28;20476;-70
2023/11/26 11:16:22;;;;;;;2.20;1.58;;;;;;;;;;4975581;28;20072;-70
2023/11/26 11:18:47;;;;;;;3.65;2.25;;;;;;;;;;4993189;28;20477;-70
2023/11/26 11:21:18;;;;;;;2.30;1.67;;;;;;;;;;4975715;28;20023;-70
2023/11/26 11:23:44;;;;;;;2.10;1.90;;;;;;;;;;4993302;28;20038;-70
2023/11/26 11:26:11;;;;;;;2.90;2.15;;;;;;;;;;4993293;28;20073;-70
2023/11/26 11:28:42;;;;;;;2.47;1.80;;;;;;;;;;4976221;28;20050;-70
2023/11/26 11:31:12;;;;;;;4.78;2.38;;;;;;;;;;4960307;28;20026;-64
2023/11/26 11:33:55;;;;;;;5.93;2.58;;;;;;;;;;4976492;28;20019;-64
2023/11/26 11:36:40;;;;;;;3.28;2.70;;;;;;;;;;4976073;28;20041;-64
2023/11/26 11:39:05;;;;;;;4.63;2.38;;;;;;;;;;4993842;28;20030;-64
2023/11/26 11:41:42;;;;;;;1.88;1.77;;;;;;;;;;4993802;28;20080;-64
2023/11/26 11:44:27;;;;;;;2.03;1.60;;;;;;;;;;4993882;28;20461;-64
2023/11/26 11:46:55;;;;;;;1.67;1.45;;;;;;;;;;4994056;28;20026;-64
2023/11/26 11:49:20;;;;;;;2.85;2.03;;;;;;;;;;4993908;28;20062;-64
2023/11/26 11:51:46;;;;;;;4.78;3.83;;;;;;;;;;4994162;28;20062;-64
2023/11/26 11:54:11;;;;;;;2.03;1.77;;;;;;;;;;4976105;28;20041;-64
2023/11/26 11:56:37;;;;;;;5.28;2.45;;;;;;;;;;4993703;28;20062;-64
2023/11/26 11:59:02;;;;;;;2.95;1.98;;;;;;;;;;4993665;28;20027;-64
2023/11/26 12:01:28;;;;;;;2.58;2.38;;;;;;;;;;4976011;28;20093;-64
2023/11/26 12:04:00;;;;;;;2.42;2.22;;;;;;;;;;4993324;28;20041;-64
2023/11/26 12:06:26;;;;;;;3.45;1.88;;;;;;;;;;4993702;28;20022;-64
2023/11/26 12:08:58;;;;;;;4.97;2.50;;;;;;;;;;4976061;28;20058;-64
2023/11/26 12:11:24;;;;;;;4.68;2.63;;;;;;;;;;4993640;28;20088;-64
2023/11/26 12:13:50;;;;;;;2.97;1.83;;;;;;;;;;4993578;28;20470;-64
2023/11/26 12:16:15;;;;;;;2.25;2.05;;;;;;;;;;4993425;28;20030;-64
2023/11/26 12:18:40;;;;;;;7.07;3.30;;;;;;;;;;4993228;28;20109;-64
2023/11/26 12:21:06;;;;;;;5.57;2.67;;;;;;;;;;4975548;28;20424;-64
2023/11/26 12:23:35;;;;;;;3.53;2.75;;;;;;;;;;4992679;28;20070;-64
2023/11/26 12:26:02;;;;;;;2.30;2.10;;;;;;;;;;4975412;28;20031;-64
2023/11/26 12:28:29;;;;;;;1.92;1.83;;;;;;;;;;4976090;28;20030;-64
2023/11/26 12:30:55;;;;;;;8.38;5.95;;;;;;;;;;4996270;28;20041;-64
2023/11/26 12:33:20;;;;;;;3.42;2.08;;;;;;;;;;4996501;28;20053;-64
2023/11/26 12:35:47;;;;;;;2.38;1.90;;;;;;;;;;4978769;28;20464;-64
2023/11/26 12:38:14;;;;;;;3.58;2.55;;;;;;;;;;4996176;28;20057;-64
2023/11/26 12:40:39;;;;;;;2.92;2.70;;;;;;;;;;4978613;28;20053;-64
2023/11/26 12:43:05;;;;;;;3.10;2.58;;;;;;;;;;4996010;28;20038;-64
2023/11/26 12:45:30;;;;;;;1.60;1.50;;;;;;;;;;4995910;28;20035;-64
2023/11/26 12:47:56;;;;;;;2.75;2.55;;;;;;;;;;4995937;28;20089;-64
2023/11/26 12:50:25;;;;;;;8.18;5.88;;;;;;;;;;4995855;28;20121;-64
2023/11/26 12:52:51;;;;;;;4.93;1.80;;;;;;;;;;4996012;28;20042;-64
2023/11/26 12:55:16;;;;;;;2.90;2.40;;;;;;;;;;4979086;28;20030;-64
2023/11/26 12:57:42;;;;;;;3.50;2.65;;;;;;;;;;4996542;28;20034;-64
2023/11/26 13:00:10;;;;;;;3.40;2.92;;;;;;;;;;4996315;28;20034;-64
2023/11/26 13:02:39;;;;;;;4.82;3.20;;;;;;;;;;4996244;28;20061;-64
2023/11/26 13:05:26;;;;;;;6.70;3.35;;;;;;;;;;4996329;28;20049;-64
2023/11/26 13:07:51;;;;;;;7.57;3.67;;;;;;;;;;4978487;28;20543;-64
2023/11/26 13:10:17;;;;;;;1.70;1.60;;;;;;;;;;4996395;28;20030;-64
2023/11/26 13:12:43;;;;;;;2.63;2.13;;;;;;;;;;4978220;28;20502;-64
2023/11/26 13:15:09;;;;;;;3.17;2.08;;;;;;;;;;4995366;28;20045;-64
2023/11/26 13:17:35;;;;;;;2.17;1.98;;;;;;;;;;4995312;28;20034;-64
2023/11/26 13:20:00;;;;;;;3.25;1.60;;;;;;;;;;4995175;28;20084;-64
2023/11/26 13:22:25;;;;;;;2.53;2.22;;;;;;;;;;4995270;28;20024;-64
2023/11/26 13:24:51;;;;;;;2.35;2.15;;;;;;;;;;4977896;28;20671;-64
2023/11/26 13:27:16;;;;;;;3.95;2.83;;;;;;;;;;4977914;28;20031;-64
2023/11/26 13:29:42;;;;;;;3.75;2.63;;;;;;;;;;4995079;28;20042;-64
2023/11/26 13:32:07;;;;;;;5.35;3.00;;;;;;;;;;4995043;28;20038;-64
2023/11/26 13:34:33;;;;;;;5.63;4.22;;;;;;;;;;4995266;28;20081;-64
2023/11/26 13:36:58;;;;;;;4.30;3.83;;;;;;;;;;4977522;28;20026;-64
2023/11/26 13:39:23;;;;;;;6.65;2.90;;;;;;;;;;4994752;28;20083;-64
2023/11/26 13:41:49;;;;;;;7.07;2.85;;;;;;;;;;4994416;28;20445;-64
2023/11/26 13:44:14;;;;;;;6.75;3.78;;;;;;;;;;4994472;28;20492;-64
2023/11/26 13:46:40;;;;;;;6.10;4.00;;;;;;;;;;4994460;28;20233;-64
2023/11/26 13:49:05;;;;;;;2.80;1.90;;;;;;;;;;4994330;28;20057;-64
2023/11/26 13:51:31;;;;;;;2.60;2.28;;;;;;;;;;4994395;28;20412;-64
2023/11/26 13:53:56;;;;;;;4.55;3.00;;;;;;;;;;4994531;28;20026;-63
2023/11/26 13:56:22;;;;;;;6.05;4.32;;;;;;;;;;4994828;28;20042;-63
2023/11/26 13:58:47;;;;;;;4.63;3.47;;;;;;;;;;4994102;28;20038;-64
2023/11/26 14:01:14;;;;;;;3.17;2.42;;;;;;;;;;4994024;28;20350;-64
2023/11/26 14:03:39;;;;;;;7.25;2.83;;;;;;;;;;4994023;28;20026;-64
2023/11/26 14:06:06;;;;;;;4.28;2.40;;;;;;;;;;4994265;28;20033;-64
2023/11/26 14:08:31;;;;;;;2.42;2.22;;;;;;;;;;4994510;28;20486;-62
2023/11/26 14:10:57;;;;;;;5.28;2.50;;;;;;;;;;4994930;28;20030;-61
2023/11/26 14:13:22;;;;;;;3.75;2.50;;;;;;;;;;4994675;28;20026;-61
2023/11/26 14:15:51;;;;;;;4.95;2.53;;;;;;;;;;4961633;28;20081;-61
2023/11/26 14:18:16;;;;;;;4.47;2.40;;;;;;;;;;4993863;28;20014;-61
2023/11/26 14:20:42;;;;;;;7.40;4.03;;;;;;;;;;4993422;28;20686;-61
2023/11/26 14:23:09;;;;;;;3.40;2.55;;;;;;;;;;4994249;28;20027;-61
2023/11/26 14:25:36;;;;;;;4.32;2.47;;;;;;;;;;4994252;28;20069;-61
2023/11/26 14:28:01;;;;;;;3.55;2.08;;;;;;;;;;4992598;28;20030;-61
2023/11/26 14:30:27;;;;;;;2.83;2.13;;;;;;;;;;4991946;28;20037;-61
2023/11/26 14:32:53;;;;;;;4.15;3.28;;;;;;;;;;4992424;28;20147;-61
2023/11/26 14:35:19;;;;;;;5.43;3.25;;;;;;;;;;4974935;28;20045;-61
2023/11/26 14:37:46;;;;;;;6.03;4.15;;;;;;;;;;4974735;28;20105;-61
2023/11/26 14:40:12;;;;;;;3.55;2.50;;;;;;;;;;4992343;28;20508;-61
2023/11/26 14:42:44;;;;;;;6.10;3.33;;;;;;;;;;4976346;28;20436;-61
2023/11/26 14:45:11;;;;;;;4.63;2.90;;;;;;;;;;4976539;28;20095;-61
2023/11/26 14:47:37;;;;;;;3.45;2.75;;;;;;;;;;4976405;28;20051;-61
2023/11/26 14:50:03;;;;;;;5.38;2.95;;;;;;;;;;4993760;28;20041;-61
2023/11/26 14:52:29;;;;;;;6.13;3.30;;;;;;;;;;4992987;28;20069;-61
2023/11/26 14:54:56;;;;;;;4.18;2.90;;;;;;;;;;4993670;28;20031;-61
2023/11/26 14:57:21;;;;;;;4.85;2.97;;;;;;;;;;4993206;28;20030;-61
2023/11/26 14:59:47;;;;;;;4.47;3.13;;;;;;;;;;4993442;28;20026;-61
2023/11/26 15:02:13;;;;;;;4.57;2.92;;;;;;;;;;4993315;28;20385;-61